createdAt,value
2023-05-05T00:01:08.746Z,9.80
2023-05-05T00:03:35.622Z,12.02
2023-05-05T00:06:03.092Z,6.30
2023-05-05T00:08:29.794Z,12.02
2023-05-05T00:10:57.396Z,8.50
2023-05-05T00:13:24.259Z,10.60
2023-05-05T00:15:52.522Z,7.75
2023-05-05T00:18:20.307Z,8.20
2023-05-05T00:20:47.764Z,7.53
2023-05-05T00:23:15.850Z,10.65
2023-05-05T00:25:42.540Z,6.22
2023-05-05T00:28:09.416Z,7.05
2023-05-05T00:30:37.179Z,10.80
2023-05-05T00:33:04.069Z,15.13
2023-05-05T00:35:30.656Z,9.27
2023-05-05T00:37:57.232Z,10.70
2023-05-05T00:40:25.062Z,8.77
2023-05-05T00:42:52.072Z,12.15
2023-05-05T00:45:19.953Z,11.75
2023-05-05T00:47:49.178Z,9.95
2023-05-05T00:53:05.792Z,7.78
2023-05-05T00:55:33.923Z,5.25
2023-05-05T00:58:03.029Z,7.15
2023-05-05T01:00:30.016Z,8.98
2023-05-05T01:02:57.075Z,11.35
2023-05-05T01:05:24.484Z,6.65
2023-05-05T01:08:21.692Z,7.75
2023-05-05T01:11:01.155Z,8.65
2023-05-05T01:13:55.583Z,7.47
2023-05-05T01:16:27.363Z,7.03
2023-05-05T01:19:19.983Z,7.32
2023-05-05T01:21:55.930Z,7.38
2023-05-05T01:24:48.530Z,5.95
2023-05-05T01:27:48.206Z,12.50
2023-05-05T01:30:42.634Z,7.05
2023-05-05T01:33:14.277Z,9.45
2023-05-05T01:35:47.120Z,9.82
2023-05-05T01:38:20.319Z,9.32
2023-05-05T01:40:50.902Z,7.20
2023-05-05T01:43:20.242Z,7.68
2023-05-05T01:45:48.919Z,7.90
2023-05-05T01:48:18.140Z,8.63
2023-05-05T01:50:46.726Z,8.40
2023-05-05T01:53:16.213Z,6.88
2023-05-05T01:55:43.723Z,8.20
2023-05-05T01:58:11.966Z,8.20
2023-05-05T02:00:39.018Z,5.93
2023-05-05T02:03:08.452Z,11.55
2023-05-05T02:05:36.810Z,6.53
2023-05-05T02:08:04.361Z,7.28
2023-05-05T02:10:31.857Z,7.72
2023-05-05T02:13:01.630Z,13.27
2023-05-05T02:15:30.000Z,10.68
2023-05-05T02:17:58.026Z,14.38
2023-05-05T02:20:25.334Z,6.43
2023-05-05T02:22:51.888Z,8.18
2023-05-05T02:25:18.492Z,11.80
2023-05-05T02:27:50.219Z,11.10
2023-05-05T02:30:19.635Z,9.45
2023-05-05T02:32:52.717Z,10.35
2023-05-05T02:35:23.139Z,10.88
2023-05-05T02:38:01.788Z,11.85
2023-05-05T02:40:31.692Z,8.43
2023-05-05T02:43:03.438Z,7.28
2023-05-05T02:45:30.155Z,9.07
2023-05-05T02:47:56.768Z,10.20
2023-05-05T02:50:23.383Z,7.80
2023-05-05T02:52:49.945Z,7.97
2023-05-05T02:55:16.597Z,12.88
2023-05-05T02:58:05.155Z,9.18
2023-05-05T03:00:43.620Z,9.02
2023-05-05T03:03:33.079Z,7.68
2023-05-05T03:06:10.212Z,7.25
2023-05-05T03:08:50.139Z,8.07
2023-05-05T03:11:27.532Z,9.88
2023-05-05T03:14:10.633Z,10.35
2023-05-05T03:16:39.366Z,10.77
2023-05-05T03:19:10.119Z,8.20
2023-05-05T03:21:37.120Z,15.57
2023-05-05T03:24:18.388Z,7.68
2023-05-05T03:26:46.719Z,7.53
2023-05-05T03:29:14.130Z,8.30
2023-05-05T03:31:41.072Z,7.72
2023-05-05T03:34:08.388Z,8.43
2023-05-05T03:36:35.959Z,8.90
2023-05-05T03:39:02.685Z,8.63
2023-05-05T03:41:29.255Z,6.93
2023-05-05T03:43:55.918Z,8.55
2023-05-05T03:46:22.510Z,10.05
2023-05-05T03:48:49.073Z,8.05
2023-05-05T03:51:15.643Z,8.60
2023-05-05T03:53:42.240Z,8.00
2023-05-05T03:56:09.014Z,10.30
2023-05-05T03:58:35.601Z,8.32
2023-05-05T04:01:02.602Z,8.73
2023-05-05T04:03:29.262Z,8.52
2023-05-05T04:05:55.874Z,12.70
2023-05-05T04:08:22.513Z,11.38
2023-05-05T04:10:49.018Z,7.90
2023-05-05T04:13:15.746Z,8.52
2023-05-05T04:15:48.424Z,7.80
2023-05-05T04:18:14.984Z,9.02
2023-05-05T04:20:41.752Z,12.93
2023-05-05T04:23:08.323Z,15.40
2023-05-05T04:25:35.271Z,10.75
2023-05-05T04:28:01.823Z,10.05
2023-05-05T04:30:28.598Z,13.18
2023-05-05T04:32:55.250Z,11.73
2023-05-05T04:35:22.196Z,12.77
2023-05-05T04:37:48.897Z,11.43
2023-05-05T04:40:16.182Z,14.70
2023-05-05T04:42:42.810Z,19.88
2023-05-05T04:45:10.046Z,17.95
2023-05-05T04:47:40.679Z,12.25
2023-05-05T04:50:08.267Z,7.95
2023-05-05T04:52:35.124Z,8.95
2023-05-05T04:55:01.768Z,9.48
2023-05-05T04:57:29.972Z,11.77
2023-05-05T04:59:56.694Z,11.38
2023-05-05T05:02:23.571Z,13.65
2023-05-05T05:04:50.175Z,14.43
2023-05-05T05:07:16.746Z,12.13
2023-05-05T05:09:43.419Z,10.70
2023-05-05T05:12:10.129Z,16.27
2023-05-05T05:14:40.181Z,12.73
2023-05-05T05:17:07.037Z,26.48
2023-05-05T05:19:34.237Z,14.57
2023-05-05T05:22:00.879Z,26.30
2023-05-05T05:24:27.517Z,18.63
2023-05-05T05:26:54.171Z,15.75
2023-05-05T05:29:20.724Z,20.63
2023-05-05T05:31:47.343Z,19.77
2023-05-05T05:34:13.934Z,8.82
2023-05-05T05:36:40.696Z,14.45
2023-05-05T05:39:07.368Z,18.50
2023-05-05T05:41:33.969Z,11.88
2023-05-05T05:44:00.631Z,11.88
2023-05-05T05:46:27.353Z,10.10
2023-05-05T05:48:54.069Z,11.52
2023-05-05T05:51:20.753Z,12.40
2023-05-05T05:53:47.312Z,14.23
2023-05-05T05:56:14.189Z,14.90
2023-05-05T05:58:40.753Z,11.90
2023-05-05T06:01:07.368Z,12.65
2023-05-05T06:03:34.549Z,12.77
2023-05-05T06:06:01.507Z,15.93
2023-05-05T06:08:28.185Z,29.83
2023-05-05T06:10:54.735Z,27.63
2023-05-05T06:13:21.410Z,17.52
2023-05-05T06:15:48.097Z,16.95
2023-05-05T06:18:14.738Z,18.88
2023-05-05T06:20:41.647Z,17.25
2023-05-05T06:23:08.220Z,16.85
2023-05-05T06:25:34.833Z,25.00
2023-05-05T06:28:02.026Z,12.48
2023-05-05T06:30:28.770Z,14.82
2023-05-05T06:32:55.652Z,17.55
2023-05-05T06:35:22.371Z,19.98
2023-05-05T06:37:49.165Z,19.70
2023-05-05T06:40:16.077Z,15.10
2023-05-05T06:42:42.775Z,13.40
2023-05-05T06:45:09.674Z,16.75
2023-05-05T06:47:36.859Z,21.25
2023-05-05T06:50:03.776Z,18.40
2023-05-05T06:52:30.380Z,37.90
2023-05-05T06:54:56.914Z,16.95
2023-05-05T06:57:23.623Z,23.77
2023-05-05T06:59:50.246Z,18.70
2023-05-05T07:02:16.864Z,12.50
2023-05-05T07:04:44.177Z,11.18
2023-05-05T07:07:10.846Z,24.98
2023-05-05T07:09:37.360Z,18.45
2023-05-05T07:12:04.340Z,12.48
2023-05-05T07:14:30.983Z,21.65
2023-05-05T07:16:57.841Z,14.82
2023-05-05T07:19:24.654Z,22.55
2023-05-05T07:21:51.920Z,19.02
2023-05-05T07:24:18.487Z,11.60
2023-05-05T07:26:45.079Z,15.05
2023-05-05T07:29:11.819Z,15.02
2023-05-05T07:31:38.556Z,15.10
2023-05-05T07:34:05.314Z,12.85
2023-05-05T07:36:32.122Z,9.95
2023-05-05T07:38:58.684Z,11.05
2023-05-05T07:41:25.283Z,10.38
2023-05-05T07:43:51.859Z,14.82
2023-05-05T07:46:18.505Z,14.70
2023-05-05T07:48:45.195Z,8.93
2023-05-05T07:51:11.815Z,9.93
2023-05-05T07:53:38.417Z,13.63
2023-05-05T07:56:05.164Z,13.90
2023-05-05T07:58:31.679Z,17.50
2023-05-05T08:00:58.492Z,12.80
2023-05-05T08:03:25.307Z,14.43
2023-05-05T08:05:55.187Z,18.20
2023-05-05T08:08:24.538Z,15.57
2023-05-05T08:10:52.957Z,11.95
2023-05-05T08:13:19.711Z,10.70
2023-05-05T08:15:46.945Z,14.20
2023-05-05T08:18:14.551Z,11.88
2023-05-05T08:20:41.484Z,10.95
2023-05-05T08:23:08.277Z,14.57
2023-05-05T08:25:34.910Z,6.82
2023-05-05T08:28:01.520Z,8.48
2023-05-05T08:30:28.370Z,12.23
2023-05-05T08:32:55.208Z,10.48
2023-05-05T08:35:22.659Z,14.15
2023-05-05T08:37:51.785Z,8.32
2023-05-05T08:40:21.255Z,12.98
2023-05-05T08:42:48.253Z,6.35
2023-05-05T08:45:18.703Z,5.43
2023-05-05T08:47:45.832Z,6.90
2023-05-05T08:50:13.005Z,9.75
2023-05-05T08:52:43.981Z,5.15
2023-05-05T08:55:26.606Z,9.32
2023-05-05T08:58:02.797Z,5.22
2023-05-05T09:00:30.172Z,6.22
2023-05-05T09:02:58.913Z,10.40
2023-05-05T09:07:53.691Z,7.47
2023-05-05T09:10:20.944Z,10.55
2023-05-05T09:12:50.522Z,5.88
2023-05-05T09:15:17.670Z,10.88
2023-05-05T09:17:44.743Z,9.05
2023-05-05T09:20:13.236Z,10.10
2023-05-05T09:22:41.926Z,12.13
2023-05-05T09:25:17.266Z,12.20
2023-05-05T09:27:49.239Z,8.75
2023-05-05T09:30:24.433Z,6.10
2023-05-05T09:32:53.208Z,8.85
2023-05-05T09:37:48.199Z,8.48
2023-05-05T09:40:18.127Z,7.28
2023-05-05T09:42:45.187Z,14.90
2023-05-05T09:45:17.804Z,11.02
2023-05-05T09:47:48.341Z,5.10
2023-05-05T09:50:18.076Z,6.82
2023-05-05T09:52:59.071Z,6.07
2023-05-05T09:55:26.137Z,4.72
2023-05-05T09:57:52.886Z,4.20
2023-05-05T10:00:20.197Z,6.55
2023-05-05T10:02:47.286Z,5.82
2023-05-05T10:05:18.719Z,4.45
2023-05-05T10:07:47.180Z,4.47
2023-05-05T10:10:16.485Z,3.55
2023-05-05T10:12:45.817Z,5.82
2023-05-05T10:15:15.041Z,10.68
2023-05-05T10:18:02.386Z,4.43
2023-05-05T10:20:33.310Z,3.17
2023-05-05T10:23:02.646Z,5.97
2023-05-05T10:25:33.329Z,6.35
2023-05-05T10:28:01.280Z,3.50
2023-05-05T10:30:31.995Z,2.85
2023-05-05T10:33:30.833Z,6.38
2023-05-05T10:36:02.505Z,2.53
2023-05-05T10:38:31.041Z,4.82
2023-05-05T10:41:01.936Z,3.95
2023-05-05T10:43:30.243Z,2.53
2023-05-05T10:48:40.108Z,2.45
2023-05-05T10:51:39.220Z,7.10
2023-05-05T10:54:20.105Z,9.77
2023-05-05T10:56:47.242Z,2.25
2023-05-05T10:59:32.697Z,6.97
2023-05-05T11:01:59.247Z,2.50
2023-05-05T11:04:25.886Z,2.38
2023-05-05T11:07:12.706Z,4.60
2023-05-05T11:09:55.764Z,4.63
2023-05-05T11:12:22.482Z,7.90
2023-05-05T11:15:24.264Z,8.05
2023-05-05T11:17:50.951Z,11.00
2023-05-05T11:20:17.685Z,2.42
2023-05-05T11:23:03.354Z,4.90
2023-05-05T11:25:36.471Z,7.63
2023-05-05T11:28:30.047Z,3.97
2023-05-05T11:30:57.495Z,2.45
2023-05-05T11:33:31.064Z,4.63
2023-05-05T11:36:06.973Z,2.80
2023-05-05T11:38:56.304Z,9.10
2023-05-05T11:41:32.191Z,5.85
2023-05-05T11:44:20.452Z,5.53
2023-05-05T11:49:33.585Z,1.40
2023-05-05T11:52:13.754Z,3.78
2023-05-05T11:54:41.349Z,4.82
2023-05-05T11:57:08.898Z,21.45
2023-05-05T11:59:37.223Z,3.45
2023-05-05T12:02:04.380Z,8.73
2023-05-05T12:04:31.975Z,4.30
2023-05-05T12:07:01.433Z,1.40
2023-05-05T12:09:28.086Z,5.55
2023-05-05T12:11:56.296Z,6.15
2023-05-05T12:14:24.199Z,7.40
2023-05-05T12:17:09.279Z,4.63
2023-05-05T12:19:36.228Z,0.73
2023-05-05T12:22:04.840Z,10.52
2023-05-05T12:24:31.654Z,2.95
2023-05-05T12:27:08.704Z,4.60
2023-05-05T12:29:35.383Z,1.58
2023-05-05T12:32:02.069Z,3.03
2023-05-05T12:34:29.066Z,1.60
2023-05-05T12:36:55.882Z,3.90
2023-05-05T12:39:22.425Z,2.55
2023-05-05T12:41:49.444Z,3.40
2023-05-05T12:44:15.984Z,2.70
2023-05-05T12:46:49.122Z,2.28
2023-05-05T12:49:17.157Z,1.08
2023-05-05T12:51:54.930Z,3.57
2023-05-05T12:54:23.834Z,3.70
2023-05-05T12:59:23.553Z,2.00
2023-05-05T13:01:52.903Z,8.07
2023-05-05T13:04:21.605Z,2.85
2023-05-05T13:06:50.281Z,3.25
2023-05-05T13:09:28.055Z,3.38
2023-05-05T13:11:54.845Z,1.73
2023-05-05T13:14:22.321Z,7.88
2023-05-05T13:16:49.257Z,3.05
2023-05-05T13:19:16.028Z,5.30
2023-05-05T13:21:42.556Z,6.07
2023-05-05T13:24:25.240Z,1.73
2023-05-05T13:26:56.540Z,1.33
2023-05-05T13:29:25.587Z,4.60
2023-05-05T13:31:54.965Z,3.67
2023-05-05T13:34:21.771Z,3.10
2023-05-05T13:36:48.474Z,1.25
2023-05-05T13:39:16.128Z,2.65
2023-05-05T13:41:44.617Z,3.45
2023-05-05T13:44:11.694Z,3.22
2023-05-05T13:46:38.439Z,5.05
2023-05-05T13:49:05.225Z,2.40
2023-05-05T13:51:32.021Z,2.05
2023-05-05T13:53:58.637Z,0.95
2023-05-05T13:56:27.450Z,1.40
2023-05-05T13:58:54.432Z,1.60
2023-05-05T14:01:21.249Z,1.30
2023-05-05T14:03:47.885Z,1.48
2023-05-05T14:06:14.625Z,4.55
2023-05-05T14:08:41.467Z,3.05
2023-05-05T14:11:08.197Z,2.42
2023-05-05T14:13:34.762Z,1.48
2023-05-05T14:16:01.397Z,1.52
2023-05-05T14:18:28.249Z,8.07
2023-05-05T14:20:54.919Z,2.25
2023-05-05T14:23:21.684Z,3.17
2023-05-05T14:25:48.190Z,4.50
2023-05-05T14:28:14.829Z,4.53
2023-05-05T14:30:41.466Z,3.55
2023-05-05T14:33:08.286Z,1.98
2023-05-05T14:35:34.874Z,0.98
2023-05-05T14:38:01.513Z,1.20
2023-05-05T14:40:29.457Z,2.05
2023-05-05T14:42:55.979Z,1.67
2023-05-05T14:45:22.614Z,1.65
2023-05-05T14:47:49.245Z,6.47
2023-05-05T14:50:15.837Z,4.30
2023-05-05T14:52:44.301Z,1.98
2023-05-05T14:55:11.409Z,4.85
2023-05-05T14:57:38.910Z,2.47
2023-05-05T15:00:07.014Z,2.05
2023-05-05T15:02:33.834Z,11.68
2023-05-05T15:05:00.534Z,3.75
2023-05-05T15:07:28.530Z,3.63
2023-05-05T15:09:58.551Z,2.92
2023-05-05T15:12:26.664Z,0.90
2023-05-05T15:14:53.639Z,1.60
2023-05-05T15:17:20.298Z,1.55
2023-05-05T15:19:46.885Z,2.15
2023-05-05T15:22:13.427Z,1.90
2023-05-05T15:24:40.050Z,2.40
2023-05-05T15:27:06.947Z,4.35
2023-05-05T15:29:33.623Z,7.68
2023-05-05T15:32:00.364Z,5.05
2023-05-05T15:34:27.152Z,3.35
2023-05-05T15:36:54.375Z,8.82
2023-05-05T15:39:20.963Z,4.65
2023-05-05T15:41:48.036Z,8.55
2023-05-05T15:44:14.761Z,3.03
2023-05-05T15:46:41.417Z,2.35
2023-05-05T15:49:08.053Z,3.30
2023-05-05T15:51:34.632Z,5.18
2023-05-05T15:54:01.462Z,2.65
2023-05-05T15:56:29.292Z,5.32
2023-05-05T15:58:56.701Z,4.15
2023-05-05T16:01:23.329Z,2.20
2023-05-05T16:03:49.978Z,5.93
2023-05-05T16:06:16.591Z,1.75
2023-05-05T16:08:43.198Z,2.25
2023-05-05T16:11:09.825Z,4.82
2023-05-05T16:13:36.466Z,3.38
2023-05-05T16:16:03.037Z,3.90
2023-05-05T16:18:29.733Z,3.15
2023-05-05T16:20:56.310Z,4.15
2023-05-05T16:23:23.180Z,5.20
2023-05-05T16:25:49.729Z,1.92
2023-05-05T16:28:16.348Z,5.25
2023-05-05T16:30:43.195Z,2.53
2023-05-05T16:33:09.989Z,2.40
2023-05-05T16:35:36.676Z,4.50
2023-05-05T16:38:03.446Z,9.45
2023-05-05T16:40:30.356Z,10.15
2023-05-05T16:42:56.896Z,12.80
2023-05-05T16:45:24.243Z,8.88
2023-05-05T16:47:51.070Z,12.00
2023-05-05T16:50:17.836Z,12.18
2023-05-05T16:52:44.420Z,9.30
2023-05-05T16:55:11.136Z,12.30
2023-05-05T16:57:37.998Z,12.00
2023-05-05T17:00:06.471Z,13.25
2023-05-05T17:02:33.476Z,9.40
2023-05-05T17:05:00.254Z,5.80
2023-05-05T17:07:27.228Z,2.47
2023-05-05T17:09:53.780Z,8.18
2023-05-05T17:12:20.575Z,10.00
2023-05-05T17:14:47.406Z,13.38
2023-05-05T17:17:14.267Z,5.28
2023-05-05T17:19:42.521Z,8.27
2023-05-05T17:22:09.220Z,5.37
2023-05-05T17:24:36.266Z,7.63
2023-05-05T17:27:03.227Z,4.30
2023-05-05T17:29:30.041Z,4.32
2023-05-05T17:31:56.694Z,5.85
2023-05-05T17:34:23.276Z,2.25
2023-05-05T17:36:49.819Z,5.35
2023-05-05T17:39:16.370Z,3.15
2023-05-05T17:41:43.124Z,3.53
2023-05-05T17:44:09.668Z,4.00
2023-05-05T17:46:36.332Z,5.53
2023-05-05T17:49:03.035Z,3.90
2023-05-05T17:51:29.687Z,3.65
2023-05-05T17:53:58.775Z,6.35
2023-05-05T17:56:25.660Z,5.28
2023-05-05T17:58:53.344Z,5.72
2023-05-05T18:01:24.570Z,7.07
2023-05-05T18:03:51.301Z,8.52
2023-05-05T18:06:18.063Z,4.90
2023-05-05T18:08:44.880Z,3.65
2023-05-05T18:11:14.636Z,4.25
2023-05-05T18:13:44.190Z,3.80
2023-05-05T18:16:11.001Z,10.25
2023-05-05T18:18:41.237Z,2.70
2023-05-05T18:21:11.954Z,3.30
2023-05-05T18:23:40.019Z,5.88
2023-05-05T18:26:07.143Z,3.53
2023-05-05T18:28:33.724Z,4.47
2023-05-05T18:31:00.384Z,6.82
2023-05-05T18:33:27.004Z,1.85
2023-05-05T18:35:53.734Z,5.10
2023-05-05T18:38:21.349Z,5.38
2023-05-05T18:40:51.199Z,3.95
2023-05-05T18:43:17.862Z,5.43
2023-05-05T18:45:44.408Z,4.10
2023-05-05T18:48:11.664Z,5.05
2023-05-05T18:50:38.267Z,5.05
2023-05-05T18:53:07.474Z,7.68
2023-05-05T18:58:00.925Z,5.15
2023-05-05T19:00:27.487Z,4.10
2023-05-05T19:02:54.432Z,4.43
2023-05-05T19:05:21.353Z,9.55
2023-05-05T19:07:48.045Z,6.35
2023-05-05T19:10:14.664Z,5.22
2023-05-05T19:12:41.538Z,5.93
2023-05-05T19:15:08.800Z,7.85
2023-05-05T19:17:35.634Z,5.00
2023-05-05T19:20:03.017Z,5.70
2023-05-05T19:22:29.546Z,10.23
2023-05-05T19:24:58.318Z,5.13
2023-05-05T19:27:25.089Z,4.55
2023-05-05T19:29:57.072Z,3.60
2023-05-05T19:32:23.765Z,7.82
2023-05-05T19:34:54.242Z,4.93
2023-05-05T19:37:21.253Z,5.40
2023-05-05T19:39:49.074Z,5.90
2023-05-05T19:42:16.667Z,5.50
2023-05-05T19:44:43.257Z,8.95
2023-05-05T19:47:12.290Z,5.88
2023-05-05T19:49:39.011Z,4.13
2023-05-05T19:52:05.690Z,6.53
2023-05-05T19:54:32.296Z,8.40
2023-05-05T19:56:58.909Z,5.22
2023-05-05T19:59:25.454Z,4.85
2023-05-05T20:01:52.189Z,4.55
2023-05-05T20:04:18.861Z,4.50
2023-05-05T20:06:45.930Z,4.13
2023-05-05T20:09:12.572Z,7.85
2023-05-05T20:11:39.259Z,6.80
2023-05-05T20:14:05.806Z,9.23
2023-05-05T20:16:33.449Z,5.32
2023-05-05T20:19:00.246Z,6.07
2023-05-05T20:21:27.000Z,5.72
2023-05-05T20:23:54.544Z,5.93
2023-05-05T20:26:21.560Z,3.90
2023-05-05T20:28:48.128Z,4.88
2023-05-05T20:31:14.889Z,5.50
2023-05-05T20:33:41.730Z,4.35
2023-05-05T20:36:08.294Z,8.10
2023-05-05T20:38:34.889Z,3.78
2023-05-05T20:41:01.588Z,3.75
2023-05-05T20:43:28.267Z,7.70
2023-05-05T20:45:54.906Z,9.95
2023-05-05T20:48:21.580Z,2.85
2023-05-05T20:50:48.080Z,2.63
2023-05-05T20:53:16.020Z,3.20
2023-05-05T20:55:42.903Z,3.63
2023-05-05T20:58:09.522Z,9.60
2023-05-05T21:00:36.176Z,5.95
2023-05-05T21:03:03.063Z,4.30
2023-05-05T21:05:30.723Z,2.63
2023-05-05T21:07:58.511Z,2.67
2023-05-05T21:10:27.232Z,3.13
2023-05-05T21:12:53.820Z,2.30
2023-05-05T21:15:20.469Z,3.30
2023-05-05T21:17:47.651Z,3.58
2023-05-05T21:20:14.303Z,3.47
2023-05-05T21:22:40.976Z,5.53
2023-05-05T21:25:11.998Z,3.40
2023-05-05T21:27:38.721Z,2.90
2023-05-05T21:30:06.757Z,4.30
2023-05-05T21:32:35.359Z,5.30
2023-05-05T21:35:02.033Z,7.28
2023-05-05T21:37:28.556Z,3.38
2023-05-05T21:39:55.186Z,6.57
2023-05-05T21:42:21.990Z,4.00
2023-05-05T21:44:48.523Z,3.78
2023-05-05T21:47:15.165Z,6.75
2023-05-05T21:49:41.701Z,4.47
2023-05-05T21:52:08.349Z,2.88
2023-05-05T21:54:34.989Z,4.65
2023-05-05T21:57:02.649Z,4.57
2023-05-05T21:59:29.200Z,4.07
2023-05-05T22:01:55.917Z,2.35
2023-05-05T22:04:22.471Z,5.60
2023-05-05T22:06:49.141Z,3.60
2023-05-05T22:09:16.165Z,4.38
2023-05-05T22:11:42.758Z,5.88
2023-05-05T22:14:09.572Z,10.55
2023-05-05T22:16:36.193Z,14.30
2023-05-05T22:19:02.830Z,6.25
2023-05-05T22:21:29.333Z,5.18
2023-05-05T22:23:56.078Z,3.88
2023-05-05T22:26:23.006Z,2.75
2023-05-05T22:28:49.829Z,3.38
2023-05-05T22:31:16.634Z,7.47
2023-05-05T22:33:43.299Z,5.88
2023-05-05T22:36:11.500Z,3.33
2023-05-05T22:38:38.300Z,7.18
2023-05-05T22:41:07.130Z,5.32
2023-05-05T22:43:33.712Z,5.30
2023-05-05T22:46:01.052Z,2.20
2023-05-05T22:48:27.594Z,4.00
2023-05-05T22:50:54.206Z,6.72
2023-05-05T22:53:23.112Z,1.90
2023-05-05T22:55:51.504Z,4.93
2023-05-05T22:58:18.477Z,2.92
2023-05-05T23:00:45.081Z,3.58
2023-05-05T23:03:12.076Z,3.22
2023-05-05T23:05:39.801Z,4.32
2023-05-05T23:08:06.539Z,3.67
2023-05-05T23:10:33.807Z,5.18
2023-05-05T23:13:00.396Z,2.63
2023-05-05T23:15:27.011Z,3.22
2023-05-05T23:17:53.658Z,5.00
2023-05-05T23:20:20.292Z,7.85
2023-05-05T23:22:46.862Z,3.05
2023-05-05T23:25:13.426Z,3.47
2023-05-05T23:27:40.981Z,7.20
2023-05-05T23:30:11.005Z,2.38
2023-05-05T23:32:37.732Z,3.08
2023-05-05T23:35:04.821Z,3.05
2023-05-05T23:37:31.430Z,2.70
2023-05-05T23:39:58.139Z,3.15
2023-05-05T23:42:24.811Z,3.78
2023-05-05T23:44:51.487Z,4.60
2023-05-05T23:47:18.207Z,2.92
2023-05-05T23:49:44.802Z,3.22
2023-05-05T23:52:11.619Z,2.05
2023-05-05T23:54:38.145Z,3.75
2023-05-05T23:57:04.901Z,5.63
2023-05-05T23:59:31.460Z,8.27
